Preview of NWS' New Version of Forecast
This preview is not operational and should not be used for support decisions.

Terminal Aerodrome Forecast (TAF)

Issued by National Weather Service (NWS)

                            
000
FTUS46 KMFR 162320
TAFRBG
TAF
KRBG 162320Z 1700/1724 23010KT P6SM -SHRA BKN050
     FM170600 VRB03KT P6SM SCT050
     FM171600 18010KT P6SM -RA OVC040=